Time;durP1;ratioP1;P1;durP2;ratioP2;P2;SDS_P1;SDS_P2;PMS_P1;PMS_P2;Temp;Humidity;BMP_temperature;BMP_pressure;BME280_temperature;BME280_humidity;BME280_pressure;Samples;Min_cycle;Max_cycle;Signal;HPM_P1;HPM_P2
2022/03/30 00:00:14;;;;;;;39.13;15.60;;;;;;;6.40;66.72;99099.03;5072217;28;20036;-70
2022/03/30 00:02:40;;;;;;;36.92;15.00;;;;;;;6.41;66.54;99094.66;5070923;28;20131;-70
2022/03/30 00:05:06;;;;;;;39.22;15.77;;;;;;;6.40;66.43;99096.44;5071208;28;20528;-70
2022/03/30 00:07:32;;;;;;;36.67;15.98;;;;;;;6.40;66.15;99093.00;5071431;28;20027;-70
2022/03/30 00:10:07;;;;;;;35.55;14.73;;;;;;;6.37;65.74;99098.41;5071724;28;20025;-70
2022/03/30 00:12:34;;;;;;;39.65;14.27;;;;;;;6.43;65.69;99105.81;5068652;28;20052;-69
2022/03/30 00:14:59;;;;;;;36.67;14.90;;;;;;;6.49;65.72;99105.41;5061373;28;20041;-66
2022/03/30 00:17:25;;;;;;;36.75;14.13;;;;;;;6.45;65.36;99099.56;5061316;28;20040;-70
2022/03/30 00:19:50;;;;;;;32.85;13.82;;;;;;;6.32;65.70;99088.31;5071295;28;20025;-69
2022/03/30 00:22:16;;;;;;;41.03;13.90;;;;;;;6.21;65.65;99093.44;5085673;28;20031;-68
2022/03/30 00:24:45;;;;;;;38.40;14.82;;;;;;;6.11;66.60;99084.56;5065281;28;20029;-70
2022/03/30 00:27:11;;;;;;;30.88;12.73;;;;;;;6.06;66.55;99082.28;5071392;28;20114;-67
2022/03/30 00:29:37;;;;;;;35.70;13.32;;;;;;;5.94;66.35;99076.16;5069596;28;20039;-70
2022/03/30 00:32:03;;;;;;;39.03;12.07;;;;;;;5.87;66.61;99080.06;5078378;28;20025;-69
2022/03/30 00:34:28;;;;;;;39.13;12.25;;;;;;;5.82;66.22;99076.91;5089756;28;20036;-69
2022/03/30 00:36:54;;;;;;;29.58;11.63;;;;;;;5.75;66.52;99078.28;5071899;28;20363;-68
2022/03/30 00:39:25;;;;;;;31.08;12.35;;;;;;;5.69;66.59;99076.09;5071769;28;20111;-70
2022/03/30 00:41:50;;;;;;;33.65;12.23;;;;;;;5.61;67.16;99063.59;5071079;28;20044;-68
2022/03/30 00:44:15;;;;;;;31.95;12.85;;;;;;;5.58;67.24;99069.00;5070206;28;20186;-70
2022/03/30 00:46:44;;;;;;;28.67;11.93;;;;;;;5.55;67.02;99064.81;5070133;28;20023;-69
2022/03/30 00:49:09;;;;;;;27.60;11.85;;;;;;;5.52;67.50;99067.63;5071134;28;20024;-70
2022/03/30 00:51:35;;;;;;;28.92;12.02;;;;;;;5.50;67.18;99066.06;5071253;28;20037;-70
2022/03/30 00:54:00;;;;;;;24.30;10.73;;;;;;;5.49;67.50;99065.25;5065977;28;20599;-69
2022/03/30 00:56:29;;;;;;;34.78;11.10;;;;;;;5.45;67.49;99071.59;5070811;28;20390;-70
2022/03/30 00:58:55;;;;;;;28.92;11.52;;;;;;;5.44;67.84;99072.50;5071067;28;20041;-70
2022/03/30 01:01:22;;;;;;;49.45;12.80;;;;;;;5.46;67.79;99073.25;5068144;28;20032;-70
2022/03/30 01:03:47;;;;;;;39.30;12.13;;;;;;;5.42;67.86;99073.56;5064478;28;20029;-71
2022/03/30 01:06:13;;;;;;;27.75;10.77;;;;;;;5.39;67.83;99066.78;5069858;28;20051;-70
2022/03/30 01:08:42;;;;;;;29.67;10.80;;;;;;;5.40;67.91;99067.59;5063389;28;20040;-70
2022/03/30 01:11:10;;;;;;;29.48;10.30;;;;;;;5.38;67.08;99072.91;5070315;28;20041;-68
2022/03/30 01:13:35;;;;;;;38.00;10.52;;;;;;;5.31;67.14;99067.28;5069817;28;20382;-69
2022/03/30 01:16:02;;;;;;;28.60;9.38;;;;;;;5.30;67.16;99059.56;5050888;28;20021;-70
2022/03/30 01:18:27;;;;;;;29.33;9.05;;;;;;;5.24;67.25;99065.19;5069693;28;20139;-69
2022/03/30 01:20:52;;;;;;;22.38;7.72;;;;;;;5.18;67.56;99056.00;5070329;28;20146;-69
2022/03/30 01:23:18;;;;;;;21.00;8.82;;;;;;;5.16;67.47;99057.88;5079511;28;20098;-69
2022/03/30 01:25:43;;;;;;;22.52;8.27;;;;;;;5.10;67.79;99048.69;5081760;28;20569;-69
2022/03/30 01:28:09;;;;;;;25.08;8.93;;;;;;;5.05;67.83;99050.78;5049769;28;20624;-69
2022/03/30 01:33:18;;;;;;;30.90;10.13;;;;;;;5.00;68.48;99046.78;5069342;28;20666;-69
2022/03/30 01:35:44;;;;;;;26.45;9.45;;;;;;;4.99;68.99;99047.72;5048680;28;20030;-70
2022/03/30 01:38:09;;;;;;;26.33;9.73;;;;;;;4.97;68.90;99053.03;5066431;28;20033;-69
2022/03/30 01:40:35;;;;;;;25.70;9.77;;;;;;;5.00;69.16;99049.38;5069279;28;20099;-70
2022/03/30 01:43:01;;;;;;;26.45;9.60;;;;;;;5.04;68.56;99046.50;5070838;28;20586;-71
2022/03/30 01:45:27;;;;;;;29.23;9.85;;;;;;;5.05;68.44;99042.16;5069573;28;20021;-70
2022/03/30 01:47:58;;;;;;;32.97;10.02;;;;;;;5.10;68.55;99029.69;5069656;28;20506;-70
2022/03/30 01:50:25;;;;;;;29.02;11.13;;;;;;;5.12;68.68;99034.75;5069398;28;20032;-71
2022/03/30 01:52:51;;;;;;;27.00;8.55;;;;;;;5.15;68.36;99024.19;5069497;28;20498;-71
2022/03/30 01:55:17;;;;;;;32.90;10.18;;;;;;;5.12;68.83;99017.44;5051160;28;20172;-69
2022/03/30 01:57:42;;;;;;;26.25;10.27;;;;;;;5.16;68.81;99018.91;5070101;28;20041;-69
2022/03/30 02:00:11;;;;;;;35.20;9.60;;;;;;;5.24;68.39;99015.81;5069121;28;20522;-71
2022/03/30 02:02:37;;;;;;;26.67;9.18;;;;;;;5.31;68.27;99020.50;5067878;28;20097;-71
2022/03/30 02:05:03;;;;;;;27.25;9.80;;;;;;;5.20;67.80;99016.94;5068600;28;20024;-70
2022/03/30 02:07:29;;;;;;;27.40;9.77;;;;;;;5.24;68.08;99013.22;5063313;28;20032;-71
2022/03/30 02:09:54;;;;;;;30.30;10.35;;;;;;;5.25;67.78;99014.84;5052191;28;20489;-71
2022/03/30 02:12:19;;;;;;;31.98;10.02;;;;;;;5.35;68.08;99015.94;5068910;28;20044;-71
2022/03/30 02:14:45;;;;;;;31.08;10.50;;;;;;;5.37;67.82;99016.66;5068676;28;20509;-72
2022/03/30 02:17:10;;;;;;;25.67;10.30;;;;;;;5.36;68.19;99006.34;5055755;28;20040;-71
2022/03/30 02:19:36;;;;;;;25.05;9.60;;;;;;;5.37;68.06;99008.03;5066437;28;20060;-68
2022/03/30 02:22:01;;;;;;;33.35;9.77;;;;;;;5.39;67.72;99000.97;5066755;28;20035;-70
2022/03/30 02:24:27;;;;;;;28.70;8.68;;;;;;;5.34;67.44;99002.09;5065073;28;20048;-70
2022/03/30 02:26:52;;;;;;;25.23;8.73;;;;;;;5.22;68.05;99000.28;5068253;28;20394;-69
2022/03/30 02:29:18;;;;;;;30.25;10.18;;;;;;;5.14;68.07;98996.53;5069062;28;20037;-71
2022/03/30 02:31:44;;;;;;;24.17;8.38;;;;;;;5.02;68.28;98996.41;5068137;28;20510;-70
2022/03/30 02:34:11;;;;;;;33.72;9.85;;;;;;;5.00;68.30;98995.66;5068624;28;20032;-71
2022/03/30 02:36:36;;;;;;;24.27;8.30;;;;;;;4.92;68.96;98986.72;5061834;28;20123;-71
2022/03/30 02:39:04;;;;;;;21.00;8.32;;;;;;;4.99;68.90;98996.59;5072183;28;20128;-71
2022/03/30 02:41:29;;;;;;;19.75;8.05;;;;;;;5.00;68.36;98994.84;5068332;28;20037;-69
2022/03/30 02:43:55;;;;;;;22.35;8.32;;;;;;;5.04;68.63;98991.09;5080606;28;20041;-69
2022/03/30 02:46:20;;;;;;;28.40;9.90;;;;;;;5.09;68.68;98996.84;5057793;28;20082;-68
2022/03/30 02:48:45;;;;;;;26.40;9.27;;;;;;;5.09;68.15;98992.47;5068616;28;20108;-67
2022/03/30 02:51:11;;;;;;;24.38;9.00;;;;;;;4.98;68.45;98994.13;5074924;28;20041;-67
2022/03/30 02:53:36;;;;;;;29.83;8.30;;;;;;;5.02;68.55;98983.41;5093574;28;20044;-69
2022/03/30 02:56:03;;;;;;;23.52;8.15;;;;;;;5.05;68.80;98985.00;5078604;28;20036;-68
2022/03/30 02:58:28;;;;;;;22.38;7.53;;;;;;;5.09;68.65;98976.06;5070081;28;20028;-69
2022/03/30 03:00:54;;;;;;;20.30;7.28;;;;;;;5.18;68.44;98979.81;5080164;28;20030;-69
2022/03/30 03:03:21;;;;;;;25.50;7.88;;;;;;;5.19;68.38;98977.13;5049635;28;20123;-69
2022/03/30 03:05:46;;;;;;;28.33;7.38;;;;;;;5.18;67.90;98975.44;5065676;28;20029;-69
2022/03/30 03:08:12;;;;;;;23.55;7.18;;;;;;;5.06;67.68;98973.66;5062266;28;20500;-71
2022/03/30 03:10:41;;;;;;;24.02;6.93;;;;;;;4.93;68.03;98972.78;5081086;28;20729;-70
2022/03/30 03:13:07;;;;;;;;;;;;;;;4.80;68.35;98976.19;5068604;28;20078;-70
2022/03/30 03:15:34;;;;;;;22.92;6.30;;;;;;;4.81;68.40;98971.81;5085328;28;19916;-69
2022/03/30 03:18:01;;;;;;;26.83;5.47;;;;;;;4.74;68.44;98970.56;5070430;28;20036;-69
2022/03/30 03:20:27;;;;;;;28.77;5.68;;;;;;;4.70;68.40;98959.53;5059825;28;20024;-68
2022/03/30 03:22:54;;;;;;;24.27;5.50;;;;;;;4.67;68.28;98969.28;5068313;28;20064;-69
2022/03/30 03:25:19;;;;;;;19.88;7.00;;;;;;;4.63;68.61;98973.00;5068737;28;20037;-72
2022/03/30 03:27:45;;;;;;;22.98;6.00;;;;;;;4.59;68.76;98961.97;5068545;28;20698;-67
2022/03/30 03:30:10;;;;;;;18.95;6.70;;;;;;;4.61;68.89;98966.16;5072066;28;20113;-69
2022/03/30 03:32:36;;;;;;;16.10;5.03;;;;;;;4.61;68.79;98955.75;5071275;28;20037;-68
2022/03/30 03:35:03;;;;;;;17.02;5.13;;;;;;;4.65;68.97;98958.16;5071479;28;20094;-68
2022/03/30 03:37:28;;;;;;;21.65;6.22;;;;;;;4.63;68.96;98952.22;5071777;28;20490;-69
2022/03/30 03:39:53;;;;;;;22.42;5.65;;;;;;;4.60;69.41;98956.72;5072808;28;20107;-69
2022/03/30 03:42:19;;;;;;;20.25;6.03;;;;;;;4.53;69.30;98963.22;5070944;28;20036;-68
2022/03/30 03:44:44;;;;;;;16.77;6.22;;;;;;;4.62;69.33;98961.78;5071386;28;20489;-66
2022/03/30 03:47:10;;;;;;;24.63;5.30;;;;;;;4.61;69.45;98966.16;5052479;28;20033;-70
2022/03/30 03:49:36;;;;;;;17.80;5.75;;;;;;;4.66;69.69;98968.44;5054187;28;20021;-70
2022/03/30 03:52:04;;;;;;;20.27;5.55;;;;;;;4.80;69.00;98970.16;5071862;28;20036;-67
2022/03/30 03:54:29;;;;;;;22.95;5.90;;;;;;;4.84;68.63;98969.84;5070792;28;20123;-71
2022/03/30 03:56:54;;;;;;;18.38;4.80;;;;;;;4.83;68.69;98967.38;5070636;28;20182;-69
2022/03/30 03:59:20;;;;;;;23.95;5.93;;;;;;;4.77;69.09;98957.38;5071274;28;20040;-69
2022/03/30 04:01:45;;;;;;;18.10;5.32;;;;;;;4.69;69.16;98955.28;5070417;28;20521;-69
2022/03/30 04:04:10;;;;;;;28.42;7.32;;;;;;;4.55;69.15;98960.50;5071633;28;20020;-67
2022/03/30 04:06:36;;;;;;;18.67;4.78;;;;;;;4.49;69.79;98960.91;5072222;28;20033;-68
2022/03/30 04:09:02;;;;;;;13.93;4.97;;;;;;;4.48;70.11;98960.06;5068048;28;20559;-69
2022/03/30 04:11:27;;;;;;;29.88;6.32;;;;;;;4.47;70.24;98966.19;5069483;28;20036;-70
2022/03/30 04:13:53;;;;;;;21.10;5.50;;;;;;;4.49;70.62;98955.72;5076357;28;20073;-69
2022/03/30 04:16:18;;;;;;;16.48;4.72;;;;;;;4.49;70.12;98956.56;5061404;28;20027;-69
2022/03/30 04:18:44;;;;;;;21.33;6.63;;;;;;;4.50;69.84;98958.22;5074662;28;20071;-67
2022/03/30 04:21:10;;;;;;;16.83;6.07;;;;;;;4.57;70.23;98953.47;5078154;28;20403;-67
2022/03/30 04:23:36;;;;;;;33.03;5.90;;;;;;;4.60;69.51;98946.31;5067489;28;20031;-71
2022/03/30 04:26:01;;;;;;;14.38;4.78;;;;;;;4.56;69.92;98941.41;5062982;28;20037;-71
2022/03/30 04:28:27;;;;;;;26.65;5.32;;;;;;;4.57;70.02;98954.31;5072992;28;20028;-71
2022/03/30 04:30:52;;;;;;;15.52;4.90;;;;;;;4.55;70.30;98950.13;5079221;28;20035;-72
2022/03/30 04:33:17;;;;;;;16.20;4.70;;;;;;;4.57;70.20;98945.69;5064413;28;20510;-70
2022/03/30 04:35:43;;;;;;;22.17;5.65;;;;;;;4.60;70.45;98948.91;5066975;28;20175;-69
2022/03/30 04:38:08;;;;;;;20.92;4.68;;;;;;;4.58;70.33;98942.97;5066708;28;20119;-70
2022/03/30 04:40:34;;;;;;;23.92;5.63;;;;;;;4.56;70.06;98937.06;5079113;28;20600;-68
2022/03/30 04:42:59;;;;;;;18.92;5.32;;;;;;;4.49;70.76;98932.38;5075018;28;20063;-68
2022/03/30 04:45:25;;;;;;;15.95;5.15;;;;;;;4.46;70.74;98937.75;5070019;28;20502;-69
2022/03/30 04:47:53;;;;;;;22.23;6.05;;;;;;;4.50;70.78;98936.63;5058862;28;20120;-69
2022/03/30 04:50:20;;;;;;;18.88;5.07;;;;;;;4.50;71.00;98934.84;5068422;28;20119;-68
2022/03/30 04:52:46;;;;;;;20.45;6.43;;;;;;;4.48;70.72;98939.28;5070551;28;20102;-69
2022/03/30 04:55:11;;;;;;;19.50;5.85;;;;;;;4.52;70.91;98940.75;5071747;28;20025;-69
2022/03/30 04:57:38;;;;;;;19.55;5.32;;;;;;;4.64;72.93;98944.38;5070736;28;20043;-70
2022/03/30 05:00:04;;;;;;;26.48;6.97;;;;;;;4.77;70.29;98947.81;5069994;28;20580;-69
2022/03/30 05:02:32;;;;;;;16.42;5.45;;;;;;;4.69;69.70;98944.88;5063711;28;20036;-69
2022/03/30 05:04:57;;;;;;;22.83;5.63;;;;;;;4.73;70.32;98940.34;5048091;28;20094;-67
2022/03/30 05:07:23;;;;;;;20.20;4.70;;;;;;;4.55;69.98;98943.16;5073166;28;20028;-67
2022/03/30 05:09:48;;;;;;;18.98;5.30;;;;;;;4.59;70.71;98942.03;5074834;28;20537;-67
2022/03/30 05:12:14;;;;;;;24.23;6.18;;;;;;;4.60;70.51;98938.53;5069321;28;20041;-68
2022/03/30 05:14:39;;;;;;;25.00;5.65;;;;;;;4.63;70.84;98934.06;5068203;28;20128;-68
2022/03/30 05:17:04;;;;;;;15.70;4.88;;;;;;;4.62;70.52;98933.22;5060698;28;20108;-69
2022/03/30 05:19:30;;;;;;;16.65;5.07;;;;;;;4.59;70.24;98918.69;5068743;28;20047;-70
2022/03/30 05:21:55;;;;;;;23.83;5.07;;;;;;;4.68;70.23;98919.03;5072890;28;20028;-68
2022/03/30 05:24:20;;;;;;;18.92;5.82;;;;;;;4.61;70.66;98932.41;5084142;28;20024;-69
2022/03/30 05:26:46;;;;;;;19.52;4.72;;;;;;;4.48;71.30;98933.28;5069720;28;20064;-70
2022/03/30 05:29:12;;;;;;;19.42;5.57;;;;;;;4.43;71.90;98933.59;5070594;28;20039;-69
2022/03/30 05:31:37;;;;;;;20.38;5.43;;;;;;;4.44;71.86;98931.81;5069702;28;20553;-70
2022/03/30 05:34:02;;;;;;;18.63;5.88;;;;;;;4.47;71.58;98923.84;5069389;28;20616;-68
2022/03/30 05:36:28;;;;;;;22.80;6.10;;;;;;;4.48;71.51;98921.13;5070086;28;20119;-68
2022/03/30 05:38:53;;;;;;;20.85;6.13;;;;;;;4.41;71.60;98919.84;5070463;28;20033;-68
2022/03/30 05:41:19;;;;;;;38.60;7.68;;;;;;;4.45;72.31;98928.28;5070878;28;20037;-69
2022/03/30 05:43:44;;;;;;;19.23;5.95;;;;;;;4.63;71.31;98931.47;5069362;28;20041;-68
2022/03/30 05:46:09;;;;;;;22.15;6.53;;;;;;;4.63;71.24;98931.47;5072250;28;20111;-69
2022/03/30 05:48:35;;;;;;;15.07;4.50;;;;;;;4.71;70.41;98930.06;5068894;28;20127;-70
2022/03/30 05:51:00;;;;;;;23.52;5.63;;;;;;;4.80;69.86;98929.44;5063068;28;20040;-68
2022/03/30 05:53:26;;;;;;;19.67;5.55;;;;;;;4.78;70.49;98930.47;5050455;28;20040;-70
2022/03/30 05:55:51;;;;;;;30.10;6.07;;;;;;;4.74;69.76;98929.84;5070134;28;20060;-69
2022/03/30 05:58:16;;;;;;;19.08;5.65;;;;;;;4.70;70.03;98925.78;5069646;28;20083;-68
2022/03/30 06:00:43;;;;;;;20.85;5.28;;;;;;;4.65;70.42;98927.03;5068402;28;20103;-69
2022/03/30 06:03:10;;;;;;;18.33;5.07;;;;;;;4.58;70.70;98917.03;5068086;28;20036;-70
2022/03/30 06:05:36;;;;;;;23.70;6.32;;;;;;;4.69;70.67;98912.91;5069009;28;20029;-69
2022/03/30 06:08:01;;;;;;;22.38;6.03;;;;;;;4.74;70.84;98913.44;5068430;28;20124;-69
2022/03/30 06:10:27;;;;;;;19.15;4.82;;;;;;;4.83;70.00;98924.06;5068992;28;20147;-68
2022/03/30 06:12:54;;;;;;;20.70;5.43;;;;;;;4.83;70.02;98924.06;5068776;28;20013;-70
2022/03/30 06:15:19;;;;;;;24.15;6.15;;;;;;;4.68;70.29;98916.44;5066500;28;20039;-70
2022/03/30 06:17:46;;;;;;;16.85;5.80;;;;;;;4.52;70.88;98922.59;5067296;28;20032;-70
2022/03/30 06:20:13;;;;;;;17.23;5.20;;;;;;;4.40;71.21;98913.00;5050985;28;20416;-70
2022/03/30 06:22:41;;;;;;;23.67;5.40;;;;;;;4.38;71.79;98911.47;5068479;28;20048;-71
2022/03/30 06:25:07;;;;;;;19.65;4.82;;;;;;;4.54;71.67;98920.75;5067774;28;20021;-68
2022/03/30 06:27:34;;;;;;;19.38;4.85;;;;;;;4.69;70.65;98910.31;5071461;28;20492;-72
2022/03/30 06:29:59;;;;;;;20.38;5.57;;;;;;;4.71;70.75;98916.22;5085583;28;20040;-71
2022/03/30 06:32:24;;;;;;;28.17;5.65;;;;;;;4.73;71.01;98911.78;5077816;28;20035;-68
2022/03/30 06:34:49;;;;;;;21.98;5.50;;;;;;;4.68;71.09;98909.47;5067867;28;20053;-70
2022/03/30 06:37:15;;;;;;;15.20;4.95;;;;;;;4.60;71.12;98902.19;5070017;28;20110;-70
2022/03/30 06:39:40;;;;;;;18.13;5.60;;;;;;;4.60;71.91;98901.38;5095515;22;20040;-68
2022/03/30 06:42:06;;;;;;;22.65;7.13;;;;;;;4.70;71.80;98902.41;5047732;28;20403;-67
2022/03/30 06:44:32;;;;;;;22.00;5.70;;;;;;;4.77;70.41;98897.66;5050571;28;20124;-67
2022/03/30 06:47:31;;;;;;;31.35;6.97;;;;;;;4.78;70.16;98907.97;5045755;28;20522;-73
2022/03/30 06:49:56;;;;;;;23.92;6.13;;;;;;;4.79;70.21;98908.78;5030559;28;20120;-67
2022/03/30 06:52:22;;;;;;;17.50;6.28;;;;;;;4.85;70.01;98911.78;5036897;28;20132;-69
2022/03/30 06:54:47;;;;;;;24.27;6.50;;;;;;;4.88;70.16;98894.34;5048275;28;20025;-67
2022/03/30 06:57:12;;;;;;;23.67;6.22;;;;;;;4.96;70.05;98895.50;5049276;28;20052;-65
2022/03/30 06:59:37;;;;;;;21.80;5.50;;;;;;;5.13;70.29;98884.00;5031452;28;20039;-66
2022/03/30 07:02:03;;;;;;;30.02;5.97;;;;;;;5.20;67.96;98892.22;5044504;28;20033;-66
2022/03/30 07:04:29;;;;;;;24.75;5.32;;;;;;;5.27;67.74;98891.69;5045478;28;20029;-67
2022/03/30 07:12:22;;;;;;;17.73;4.85;;;;;;;5.28;67.61;98882.97;5029364;28;20422;-66
2022/03/30 07:14:47;;;;;;;23.55;4.97;;;;;;;5.42;67.89;98887.22;5039526;28;20490;-67
2022/03/30 07:17:13;;;;;;;22.88;4.10;;;;;;;5.40;66.77;98889.09;5047249;28;20194;-67
2022/03/30 07:19:40;;;;;;;18.83;5.32;;;;;;;5.50;67.15;98889.28;5047869;28;20020;-67
2022/03/30 07:22:06;;;;;;;25.23;4.97;;;;;;;5.51;66.06;98896.97;5049503;28;20432;-66
2022/03/30 07:24:31;;;;;;;21.35;4.30;;;;;;;5.69;66.18;98884.47;5047416;28;20098;-67
2022/03/30 07:26:56;;;;;;;16.63;4.55;;;;;;;5.60;66.01;98885.13;5048326;28;20041;-67
2022/03/30 07:29:22;;;;;;;26.83;5.13;;;;;;;5.78;66.09;98881.25;5046097;28;20079;-67
2022/03/30 07:31:47;;;;;;;24.10;4.65;;;;;;;5.85;64.96;98880.81;5047417;28;20486;-68
2022/03/30 07:34:12;;;;;;;21.00;5.03;;;;;;;5.92;64.79;98885.50;5046064;28;20029;-67
2022/03/30 07:36:39;;;;;;;32.47;5.65;;;;;;;6.02;64.83;98880.50;5048969;28;20075;-66
2022/03/30 07:39:04;;;;;;;21.85;5.65;;;;;;;6.06;65.19;98874.94;5041639;28;20044;-66
2022/03/30 07:41:29;;;;;;;19.73;5.32;;;;;;;6.15;63.95;98872.63;5045760;28;20033;-66
2022/03/30 07:43:55;;;;;;;22.15;6.05;;;;;;;6.11;63.24;98876.41;5043155;28;20045;-66
2022/03/30 07:46:20;;;;;;;16.80;5.03;;;;;;;6.12;64.50;98883.25;5046074;28;20418;-67
2022/03/30 07:48:45;;;;;;;16.27;4.40;;;;;;;6.23;63.32;98875.50;5045198;28;20399;-67
2022/03/30 07:51:12;;;;;;;20.75;5.38;;;;;;;6.21;63.38;98872.22;5046602;28;20053;-68
2022/03/30 07:53:37;;;;;;;15.25;4.47;;;;;;;6.41;63.84;98875.97;5044256;28;20075;-67
2022/03/30 07:56:02;;;;;;;16.30;4.03;;;;;;;6.27;63.47;98871.78;5046822;28;20037;-68
2022/03/30 07:58:28;;;;;;;15.80;4.82;;;;;;;6.22;63.18;98877.28;5042172;28;20033;-67
2022/03/30 08:00:53;;;;;;;22.45;5.07;;;;;;;6.29;63.38;98880.28;5047273;28;20025;-67
2022/03/30 08:03:18;;;;;;;21.20;4.85;;;;;;;6.42;62.53;98875.03;5047184;28;20033;-67
2022/03/30 08:05:44;;;;;;;16.30;4.15;;;;;;;6.39;61.51;98872.66;5047196;28;20593;-66
2022/03/30 08:08:10;;;;;;;19.85;4.93;;;;;;;6.43;61.90;98877.53;5043905;28;20041;-67
2022/03/30 08:10:37;;;;;;;20.02;4.20;;;;;;;6.42;61.83;98873.25;5045994;28;20096;-70
2022/03/30 08:13:03;;;;;;;16.25;4.53;;;;;;;6.45;61.82;98867.84;5043223;28;20014;-66
2022/03/30 08:15:29;;;;;;;13.80;4.07;;;;;;;6.44;60.79;98860.13;5045508;28;20029;-67
2022/03/30 08:17:54;;;;;;;17.52;3.95;;;;;;;6.40;61.53;98864.72;5051412;28;20041;-66
2022/03/30 08:23:06;;;;;;;14.40;3.85;;;;;;;6.30;62.07;98864.56;5046116;28;20592;-66
2022/03/30 08:25:32;;;;;;;22.10;4.63;;;;;;;6.23;63.55;98859.91;5050159;28;20096;-68
2022/03/30 08:27:58;;;;;;;20.67;3.65;;;;;;;6.38;63.17;98866.63;5049054;28;20078;-66
2022/03/30 08:30:23;;;;;;;22.15;4.45;;;;;;;6.29;62.95;98856.84;5030893;28;20056;-66
2022/03/30 08:32:49;;;;;;;23.92;4.90;;;;;;;6.30;64.43;98851.56;5047519;28;20567;-67
2022/03/30 08:35:14;;;;;;;17.83;4.60;;;;;;;6.45;63.85;98848.75;5047058;28;20037;-64
2022/03/30 08:37:39;;;;;;;15.27;4.32;;;;;;;6.54;64.83;98853.31;5046697;28;20033;-67
2022/03/30 08:40:06;;;;;;;24.48;7.53;;;;;;;6.70;63.61;98853.00;5032419;28;20098;-66
2022/03/30 08:42:32;;;;;;;19.35;4.60;;;;;;;6.73;65.48;98844.97;5043631;28;20033;-67
2022/03/30 08:44:59;;;;;;;20.00;5.25;;;;;;;6.96;63.46;98853.66;5049885;28;20028;-67
2022/03/30 08:47:24;;;;;;;22.70;5.80;;;;;;;7.22;62.11;98865.53;5042402;28;20110;-67
2022/03/30 08:49:51;;;;;;;19.00;5.20;;;;;;;7.29;62.05;98863.31;5045069;28;20471;-67
2022/03/30 08:52:17;;;;;;;18.08;4.75;;;;;;;7.47;62.70;98863.69;5043129;28;20025;-66
2022/03/30 08:54:44;;;;;;;19.30;5.00;;;;;;;7.42;62.30;98856.22;5044803;28;20025;-67
2022/03/30 08:57:09;;;;;;;25.67;5.78;;;;;;;7.51;61.63;98860.72;5039227;28;20033;-67
2022/03/30 08:59:35;;;;;;;16.48;5.28;;;;;;;7.76;63.36;98869.25;5042766;28;20113;-67
2022/03/30 09:02:00;;;;;;;15.85;4.50;;;;;;;7.79;60.54;98861.19;5036408;28;20040;-66
2022/03/30 09:04:26;;;;;;;23.10;5.05;;;;;;;7.51;60.46;98863.31;5043160;28;20028;-67
2022/03/30 09:06:56;;;;;;;20.73;4.97;;;;;;;7.31;62.37;98858.81;5041907;28;20024;-67
2022/03/30 09:09:33;;;;;;;19.00;5.03;;;;;;;7.32;61.92;98862.25;5043594;28;20029;-67
2022/03/30 09:12:00;;;;;;;21.20;5.07;;;;;;;7.17;62.98;98852.03;5052868;28;20044;-67
2022/03/30 09:14:31;;;;;;;20.30;5.53;;;;;;;7.06;62.82;98851.19;5042369;28;20078;-67
2022/03/30 09:16:59;;;;;;;22.52;5.10;;;;;;;7.08;62.28;98846.69;5048095;28;20056;-65
2022/03/30 09:19:26;;;;;;;27.13;5.57;;;;;;;7.00;63.37;98842.06;5048316;28;20098;-67
2022/03/30 09:21:55;;;;;;;21.05;6.78;;;;;;;7.15;64.29;98856.53;5048572;28;20067;-68
2022/03/30 09:24:23;;;;;;;22.63;5.18;;;;;;;7.19;64.45;98851.91;5045762;28;20040;-67
2022/03/30 09:26:51;;;;;;;26.00;7.18;;;;;;;7.38;63.97;98854.78;5043055;28;20033;-68
2022/03/30 09:29:21;;;;;;;24.73;7.70;;;;;;;7.60;65.11;98859.19;5028418;28;20116;-67
2022/03/30 09:31:48;;;;;;;28.77;6.57;;;;;;;7.84;65.34;98860.81;5047652;28;20033;-68
2022/03/30 09:34:13;;;;;;;18.42;6.20;;;;;;;7.98;63.98;98865.78;5046417;28;20049;-69
2022/03/30 09:36:42;;;;;;;29.95;6.78;;;;;;;7.98;63.68;98864.00;5047789;28;20110;-68
2022/03/30 09:39:25;;;;;;;19.67;6.43;;;;;;;8.02;62.79;98858.53;5048101;28;20029;-68
2022/03/30 09:41:52;;;;;;;23.45;6.30;;;;;;;8.04;62.43;98857.44;5049142;28;20148;-66
2022/03/30 09:44:18;;;;;;;17.80;5.65;;;;;;;8.12;63.62;98856.81;5047834;28;20939;-67
2022/03/30 09:47:05;;;;;;;18.65;6.50;;;;;;;8.18;64.22;98862.41;5048059;28;20424;-66
2022/03/30 09:49:39;;;;;;;17.50;5.93;;;;;;;8.35;64.13;98855.84;5040831;28;20047;-70
2022/03/30 09:52:13;;;;;;;26.13;6.45;;;;;;;8.37;64.42;98846.09;5046673;28;20342;-68
2022/03/30 09:54:47;;;;;;;17.77;6.35;;;;;;;8.07;62.44;98843.31;5047016;28;20258;-68
2022/03/30 09:57:21;;;;;;;26.92;6.28;;;;;;;8.20;63.15;98837.00;5046681;28;20028;-67
2022/03/30 10:00:10;;;;;;;19.65;5.57;;;;;;;8.33;63.71;98831.59;5028607;28;20052;-68
2022/03/30 10:02:39;;;;;;;23.90;6.15;;;;;;;8.42;63.09;98828.28;5041396;28;20072;-69
2022/03/30 10:05:07;;;;;;;22.02;6.72;;;;;;;8.56;62.70;98831.53;5043375;28;20029;-69
2022/03/30 10:07:32;;;;;;;32.00;7.22;;;;;;;8.85;63.12;98823.91;5046919;28;20025;-67
2022/03/30 10:09:59;;;;;;;16.48;7.22;;;;;;;8.96;62.76;98813.38;5045057;28;20020;-67
2022/03/30 10:12:26;;;;;;;26.35;6.93;;;;;;;9.10;62.85;98812.22;5030499;28;20572;-65
2022/03/30 10:14:53;;;;;;;27.10;6.78;;;;;;;9.25;62.46;98808.31;5041204;28;20037;-67
2022/03/30 10:17:19;;;;;;;24.98;6.85;;;;;;;9.26;61.76;98812.56;5040620;28;20102;-69
2022/03/30 10:19:46;;;;;;;19.00;6.05;;;;;;;9.27;60.92;98806.41;5045055;28;20040;-68
2022/03/30 10:22:33;;;;;;;19.13;6.18;;;;;;;9.12;61.61;98810.31;5040178;28;20396;-66
2022/03/30 10:25:35;;;;;;;23.75;6.38;;;;;;;9.18;62.23;98799.34;5039164;28;20515;-69
2022/03/30 10:28:22;;;;;;;21.80;7.70;;;;;;;9.17;62.88;98798.50;5036934;28;20557;-68
2022/03/30 10:30:55;;;;;;;20.30;7.35;;;;;;;9.35;61.08;98792.66;5042921;28;20033;-67
2022/03/30 10:33:33;;;;;;;19.95;6.47;;;;;;;9.22;60.35;98792.88;5048579;28;20566;-68
2022/03/30 10:36:20;;;;;;;24.17;8.35;;;;;;;9.35;61.96;98790.88;5036487;28;20558;-68
2022/03/30 10:39:14;;;;;;;22.27;7.53;;;;;;;9.50;60.83;98793.13;5029792;28;20067;-67
2022/03/30 10:41:56;;;;;;;20.60;6.55;;;;;;;9.69;65.60;98798.41;5037920;28;20043;-68
2022/03/30 10:44:35;;;;;;;30.92;8.07;;;;;;;9.70;59.14;98792.22;5040637;28;20025;-67
2022/03/30 10:47:23;;;;;;;14.43;7.32;;;;;;;9.81;60.52;98792.09;5044019;28;20041;-72
2022/03/30 10:49:57;;;;;;;30.98;8.10;;;;;;;9.48;59.67;98782.78;5043522;28;20513;-67
2022/03/30 10:52:38;;;;;;;18.75;6.72;;;;;;;9.25;59.04;98782.16;5041559;28;20021;-68
2022/03/30 10:55:12;;;;;;;17.95;6.10;;;;;;;8.77;61.01;98777.50;5045493;28;20678;-70
2022/03/30 10:57:44;;;;;;;20.25;6.43;;;;;;;8.60;61.23;98785.91;5046830;28;20452;-69
2022/03/30 11:00:18;;;;;;;27.88;7.28;;;;;;;8.95;62.96;98778.59;5043557;28;20045;-68
2022/03/30 11:02:44;;;;;;;19.83;6.30;;;;;;;9.05;59.60;98770.78;5030220;28;20490;-68
2022/03/30 11:05:11;;;;;;;24.88;6.78;;;;;;;9.14;60.62;98763.94;5031385;28;20075;-67
2022/03/30 11:07:37;;;;;;;18.88;5.22;;;;;;;8.92;59.19;98757.94;5045582;28;20051;-67
2022/03/30 11:10:21;;;;;;;32.97;7.03;;;;;;;8.94;58.92;98761.25;5038599;28;20096;-67
2022/03/30 11:13:05;;;;;;;32.40;7.25;;;;;;;9.01;57.60;98763.31;5046620;28;20041;-64
2022/03/30 11:15:53;;;;;;;25.90;5.82;;;;;;;9.29;57.01;98753.94;5042625;28;20075;-66
2022/03/30 11:18:19;;;;;;;21.08;5.97;;;;;;;9.67;57.11;98758.47;5045696;28;20041;-65
2022/03/30 11:21:12;;;;;;;14.45;5.72;;;;;;;9.56;54.88;98754.16;5043130;28;20029;-68
2022/03/30 11:24:07;;;;;;;19.77;5.90;;;;;;;9.36;55.66;98752.47;5038276;28;20035;-66
2022/03/30 11:26:47;;;;;;;20.50;6.35;;;;;;;9.26;57.59;98755.03;5032416;28;20041;-67
2022/03/30 11:29:41;;;;;;;23.60;6.68;;;;;;;9.57;58.48;98753.22;5046993;28;20049;-67
2022/03/30 11:32:18;;;;;;;16.42;5.32;;;;;;;9.56;56.94;98741.06;5026075;28;20171;-66
2022/03/30 11:34:44;;;;;;;19.65;5.38;;;;;;;9.75;55.37;98740.28;5040239;28;20075;-67
2022/03/30 11:37:10;;;;;;;18.55;6.07;;;;;;;9.61;54.36;98738.91;5041221;28;20078;-67
2022/03/30 11:39:35;;;;;;;22.15;5.68;;;;;;;9.38;55.35;98743.53;5045873;28;20025;-68
2022/03/30 11:42:01;;;;;;;15.35;5.78;;;;;;;9.10;54.61;98736.41;5023808;28;20039;-68
2022/03/30 11:47:16;;;;;;;20.92;7.22;;;;;;;8.98;55.84;98735.69;5036989;28;20163;-67